This is the latest recevied weather packets stored in our database for station/object HS5NMF. If no packets are shown the sender has not sent any weather packets the latest 10 day(s).
| Time | Temp. | Humidity | Pressure | Rain* | Wind** | Luminosity | Snow |
|---|---|---|---|---|---|---|---|
| 1777801669 | 33.89° C | 53% | 974 hPa | - | - | 0 W/m² | - |
| 1777801346 | 33.89° C | 55% | 974 hPa | - | - | 0 W/m² | - |
| 1777801024 | 33.89° C | 59% | 973 hPa | - | - | 0 W/m² | - |
| 1777800704 | 33.89° C | 60% | 973 hPa | - | - | 0 W/m² | - |
| 1777800378 | 33.33° C | 60% | 973 hPa | - | - | 0 W/m² | - |
| 1777800056 | 32.78° C | 61% | 973 hPa | - | - | 0 W/m² | - |
| 1777799733 | 32.22° C | 60% | 973 hPa | - | - | 0 W/m² | - |
| 1777799411 | 32.22° C | 61% | 973 hPa | - | - | 0 W/m² | - |
| 1777799087 | 32.78° C | 63% | 974 hPa | - | - | 0 W/m² | - |
| 1777798762 | 32.78° C | 62% | 974 hPa | - | - | 0 W/m² | - |
| 1777798438 | 32.78° C | 62% | 974 hPa | - | - | 0 W/m² | - |
| 1777798118 | 33.33° C | 59% | 974 hPa | - | - | 0 W/m² | - |
| 1777797792 | 33.33° C | 59% | 974 hPa | - | - | 0 W/m² | - |
| 1777797472 | 33.89° C | 56% | 974 hPa | - | - | 0 W/m² | - |
| 1777797145 | 34.44° C | 55% | 974 hPa | - | - | 0 W/m² | - |
| 1777796821 | 35° C | 56% | 974 hPa | - | - | 0 W/m² | - |
| 1777796499 | 35° C | 54% | 974 hPa | - | - | 0 W/m² | - |
| 1777796176 | 35° C | 53% | 974 hPa | - | - | 0 W/m² | - |
| 1777795854 | 36.67° C | 47% | 974 hPa | - | - | 0 W/m² | - |
| 1777795532 | 37.78° C | 45% | 974 hPa | - | - | 0 W/m² | - |
| 1777795209 | 37.22° C | 44% | 974 hPa | - | - | 0 W/m² | - |
| 1777794889 | 37.22° C | 45% | 974 hPa | - | - | 0 W/m² | - |
| 1777794563 | 37.22° C | 45% | 974 hPa | - | - | 0 W/m² | - |
| 1777794241 | 37.22° C | 45% | 974 hPa | - | - | 0 W/m² | - |
| 1777793918 | 37.78° C | 44% | 974 hPa | - | - | 0 W/m² | - |
* Rain since midnight (hover to see other rain measurements)
** Current wind speed in m/s (hover to see current wind gust speed)